sensor_id;sensor_type;location;lat;lon;timestamp;pressure;altitude;pressure_sealevel;temperature;humidity
43480;BME280;29067;35.492;-97.520;2023-12-22T00:01:59;97758.84;;;10.79;92.72
43480;BME280;29067;35.492;-97.520;2023-12-22T00:04:27;97758.80;;;10.35;91.36
43480;BME280;29067;35.492;-97.520;2023-12-22T00:06:55;97759.23;;;11.50;92.35
43480;BME280;29067;35.492;-97.520;2023-12-22T00:09:23;97755.94;;;12.28;85.65
43480;BME280;29067;35.492;-97.520;2023-12-22T00:11:51;97760.20;;;10.92;95.23
43480;BME280;29067;35.492;-97.520;2023-12-22T00:14:19;97761.41;;;11.76;91.76
43480;BME280;29067;35.492;-97.520;2023-12-22T00:16:47;97764.66;;;11.14;92.34
43480;BME280;29067;35.492;-97.520;2023-12-22T00:19:15;97761.66;;;11.77;93.90
43480;BME280;29067;35.492;-97.520;2023-12-22T00:21:43;97762.60;;;11.70;91.81
43480;BME280;29067;35.492;-97.520;2023-12-22T00:24:11;97759.45;;;12.28;89.73
43480;BME280;29067;35.492;-97.520;2023-12-22T00:26:39;97764.94;;;11.36;93.44
43480;BME280;29067;35.492;-97.520;2023-12-22T00:29:08;97773.44;;;11.52;90.12
43480;BME280;29067;35.492;-97.520;2023-12-22T00:31:36;97771.86;;;10.11;100.00
43480;BME280;29067;35.492;-97.520;2023-12-22T00:34:04;97772.45;;;10.13;100.00
43480;BME280;29067;35.492;-97.520;2023-12-22T00:36:31;97772.63;;;9.98;100.00
43480;BME280;29067;35.492;-97.520;2023-12-22T00:38:59;97773.56;;;10.97;100.00
43480;BME280;29067;35.492;-97.520;2023-12-22T00:41:27;97775.68;;;10.62;100.00
43480;BME280;29067;35.492;-97.520;2023-12-22T00:43:55;97779.77;;;10.51;100.00
43480;BME280;29067;35.492;-97.520;2023-12-22T00:46:23;97779.09;;;10.37;100.00
43480;BME280;29067;35.492;-97.520;2023-12-22T00:48:51;97777.59;;;10.84;100.00
43480;BME280;29067;35.492;-97.520;2023-12-22T00:51:19;97777.44;;;11.21;100.00
43480;BME280;29067;35.492;-97.520;2023-12-22T00:53:47;97784.55;;;9.57;100.00
43480;BME280;29067;35.492;-97.520;2023-12-22T00:56:14;97785.60;;;10.14;100.00
43480;BME280;29067;35.492;-97.520;2023-12-22T00:58:42;97787.85;;;9.73;100.00
43480;BME280;29067;35.492;-97.520;2023-12-22T01:01:10;97793.80;;;10.00;100.00
43480;BME280;29067;35.492;-97.520;2023-12-22T01:03:39;97793.77;;;11.03;100.00
43480;BME280;29067;35.492;-97.520;2023-12-22T01:06:06;97798.69;;;8.94;100.00
43480;BME280;29067;35.492;-97.520;2023-12-22T01:08:34;97800.08;;;10.20;100.00
43480;BME280;29067;35.492;-97.520;2023-12-22T01:11:04;97798.27;;;10.78;100.00
43480;BME280;29067;35.492;-97.520;2023-12-22T01:13:31;97803.16;;;10.65;100.00
43480;BME280;29067;35.492;-97.520;2023-12-22T01:16:00;97805.78;;;10.34;100.00
43480;BME280;29067;35.492;-97.520;2023-12-22T01:18:28;97810.96;;;10.09;100.00
43480;BME280;29067;35.492;-97.520;2023-12-22T01:20:56;97812.60;;;9.21;100.00
43480;BME280;29067;35.492;-97.520;2023-12-22T01:23:24;97812.66;;;9.74;100.00
43480;BME280;29067;35.492;-97.520;2023-12-22T01:25:52;97814.13;;;9.82;100.00
43480;BME280;29067;35.492;-97.520;2023-12-22T01:28:20;97816.15;;;10.76;100.00
43480;BME280;29067;35.492;-97.520;2023-12-22T01:30:49;97816.59;;;10.28;100.00
43480;BME280;29067;35.492;-97.520;2023-12-22T01:33:17;97822.10;;;9.39;100.00
43480;BME280;29067;35.492;-97.520;2023-12-22T01:35:45;97820.13;;;10.21;100.00
43480;BME280;29067;35.492;-97.520;2023-12-22T01:38:13;97827.23;;;9.46;100.00
43480;BME280;29067;35.492;-97.520;2023-12-22T01:40:42;97824.86;;;9.43;100.00
43480;BME280;29067;35.492;-97.520;2023-12-22T01:43:10;97830.42;;;9.74;100.00
43480;BME280;29067;35.492;-97.520;2023-12-22T01:45:38;97828.56;;;9.32;100.00
43480;BME280;29067;35.492;-97.520;2023-12-22T01:48:07;97823.73;;;10.82;100.00
43480;BME280;29067;35.492;-97.520;2023-12-22T01:50:35;97824.11;;;11.51;99.62
43480;BME280;29067;35.492;-97.520;2023-12-22T01:53:04;97827.15;;;10.71;100.00
43480;BME280;29067;35.492;-97.520;2023-12-22T01:55:32;97831.20;;;10.17;100.00
43480;BME280;29067;35.492;-97.520;2023-12-22T01:58:00;97834.15;;;9.40;100.00
43480;BME280;29067;35.492;-97.520;2023-12-22T02:00:28;97835.69;;;10.01;100.00
43480;BME280;29067;35.492;-97.520;2023-12-22T02:02:56;97837.05;;;9.91;100.00
43480;BME280;29067;35.492;-97.520;2023-12-22T02:05:25;97846.24;;;9.41;100.00
43480;BME280;29067;35.492;-97.520;2023-12-22T02:07:53;97844.09;;;8.76;100.00
43480;BME280;29067;35.492;-97.520;2023-12-22T02:10:21;97844.23;;;9.24;100.00
43480;BME280;29067;35.492;-97.520;2023-12-22T02:12:49;97843.13;;;8.56;100.00
43480;BME280;29067;35.492;-97.520;2023-12-22T02:15:17;97837.59;;;8.85;100.00
43480;BME280;29067;35.492;-97.520;2023-12-22T02:17:51;97833.49;;;9.56;100.00
43480;BME280;29067;35.492;-97.520;2023-12-22T02:20:21;97823.80;;;9.82;100.00
43480;BME280;29067;35.492;-97.520;2023-12-22T02:22:52;97819.20;;;9.22;100.00
43480;BME280;29067;35.492;-97.520;2023-12-22T02:25:20;97819.76;;;8.79;100.00
43480;BME280;29067;35.492;-97.520;2023-12-22T02:27:50;97818.65;;;9.04;100.00
43480;BME280;29067;35.492;-97.520;2023-12-22T02:30:24;97811.81;;;10.17;100.00
43480;BME280;29067;35.492;-97.520;2023-12-22T02:32:59;97813.59;;;9.58;100.00
43480;BME280;29067;35.492;-97.520;2023-12-22T02:35:29;97816.96;;;9.43;100.00
43480;BME280;29067;35.492;-97.520;2023-12-22T02:37:59;97811.75;;;10.27;100.00
43480;BME280;29067;35.492;-97.520;2023-12-22T02:40:28;97807.57;;;10.88;100.00
43480;BME280;29067;35.492;-97.520;2023-12-22T02:42:56;97815.61;;;8.94;100.00
43480;BME280;29067;35.492;-97.520;2023-12-22T02:45:26;97812.51;;;9.15;100.00
43480;BME280;29067;35.492;-97.520;2023-12-22T02:47:54;97813.66;;;10.14;100.00
43480;BME280;29067;35.492;-97.520;2023-12-22T02:50:22;97809.61;;;10.24;100.00
43480;BME280;29067;35.492;-97.520;2023-12-22T02:52:50;97814.69;;;8.65;100.00
43480;BME280;29067;35.492;-97.520;2023-12-22T02:55:18;97813.19;;;9.67;100.00
43480;BME280;29067;35.492;-97.520;2023-12-22T02:57:47;97811.52;;;8.52;100.00
43480;BME280;29067;35.492;-97.520;2023-12-22T03:00:15;97809.73;;;8.86;100.00
43480;BME280;29067;35.492;-97.520;2023-12-22T03:02:43;97806.85;;;8.90;100.00
43480;BME280;29067;35.492;-97.520;2023-12-22T03:05:11;97800.65;;;9.61;100.00
43480;BME280;29067;35.492;-97.520;2023-12-22T03:07:39;97801.68;;;9.07;100.00
43480;BME280;29067;35.492;-97.520;2023-12-22T03:10:07;97789.63;;;10.32;100.00
43480;BME280;29067;35.492;-97.520;2023-12-22T03:12:36;97789.75;;;9.42;100.00
43480;BME280;29067;35.492;-97.520;2023-12-22T03:15:04;97786.14;;;10.67;100.00
43480;BME280;29067;35.492;-97.520;2023-12-22T03:17:33;97785.03;;;9.25;100.00
43480;BME280;29067;35.492;-97.520;2023-12-22T03:20:01;97784.59;;;9.27;100.00
43480;BME280;29067;35.492;-97.520;2023-12-22T03:22:29;97779.67;;;10.07;100.00
43480;BME280;29067;35.492;-97.520;2023-12-22T03:24:57;97782.80;;;9.78;100.00
43480;BME280;29067;35.492;-97.520;2023-12-22T03:27:25;97788.41;;;8.72;100.00
43480;BME280;29067;35.492;-97.520;2023-12-22T03:29:53;97792.64;;;9.58;100.00
43480;BME280;29067;35.492;-97.520;2023-12-22T03:32:22;97789.06;;;10.42;100.00
43480;BME280;29067;35.492;-97.520;2023-12-22T03:34:50;97789.39;;;10.92;96.64
43480;BME280;29067;35.492;-97.520;2023-12-22T03:37:18;97791.60;;;11.01;95.91
43480;BME280;29067;35.492;-97.520;2023-12-22T03:39:46;97799.26;;;10.24;98.09
43480;BME280;29067;35.492;-97.520;2023-12-22T03:42:14;97804.18;;;9.99;100.00
43480;BME280;29067;35.492;-97.520;2023-12-22T03:44:42;97807.81;;;8.67;100.00
43480;BME280;29067;35.492;-97.520;2023-12-22T03:47:11;97802.95;;;10.19;100.00
43480;BME280;29067;35.492;-97.520;2023-12-22T03:49:38;97803.49;;;8.78;100.00
43480;BME280;29067;35.492;-97.520;2023-12-22T03:52:06;97800.34;;;9.23;100.00
43480;BME280;29067;35.492;-97.520;2023-12-22T03:54:34;97797.62;;;8.21;100.00
43480;BME280;29067;35.492;-97.520;2023-12-22T03:57:02;97793.25;;;9.12;100.00
43480;BME280;29067;35.492;-97.520;2023-12-22T03:59:30;97794.25;;;8.38;100.00
43480;BME280;29067;35.492;-97.520;2023-12-22T04:01:58;97785.61;;;9.71;100.00
43480;BME280;29067;35.492;-97.520;2023-12-22T04:04:26;97787.89;;;9.17;100.00
43480;BME280;29067;35.492;-97.520;2023-12-22T04:06:54;97791.71;;;10.43;100.00
43480;BME280;29067;35.492;-97.520;2023-12-22T04:09:22;97792.76;;;10.49;98.90
43480;BME280;29067;35.492;-97.520;2023-12-22T04:11:50;97795.19;;;10.98;99.39
43480;BME280;29067;35.492;-97.520;2023-12-22T04:14:18;97799.94;;;10.09;100.00
43480;BME280;29067;35.492;-97.520;2023-12-22T04:16:46;97798.35;;;10.10;100.00
43480;BME280;29067;35.492;-97.520;2023-12-22T04:19:14;97800.83;;;9.47;100.00
43480;BME280;29067;35.492;-97.520;2023-12-22T04:21:42;97802.35;;;9.64;100.00
43480;BME280;29067;35.492;-97.520;2023-12-22T04:24:10;97802.83;;;9.02;100.00
43480;BME280;29067;35.492;-97.520;2023-12-22T04:26:37;97798.80;;;9.39;100.00
43480;BME280;29067;35.492;-97.520;2023-12-22T04:29:06;97807.00;;;8.17;100.00
43480;BME280;29067;35.492;-97.520;2023-12-22T04:31:34;97802.91;;;9.04;100.00
43480;BME280;29067;35.492;-97.520;2023-12-22T04:34:02;97801.86;;;8.57;100.00
43480;BME280;29067;35.492;-97.520;2023-12-22T04:36:30;97801.15;;;8.14;100.00
43480;BME280;29067;35.492;-97.520;2023-12-22T04:38:58;97801.55;;;8.95;100.00
43480;BME280;29067;35.492;-97.520;2023-12-22T04:41:26;97799.73;;;9.89;100.00
43480;BME280;29067;35.492;-97.520;2023-12-22T04:43:54;97800.08;;;8.91;100.00
43480;BME280;29067;35.492;-97.520;2023-12-22T04:46:21;97805.07;;;8.65;100.00
43480;BME280;29067;35.492;-97.520;2023-12-22T04:48:50;97802.98;;;8.40;100.00
43480;BME280;29067;35.492;-97.520;2023-12-22T04:51:18;97801.25;;;8.23;100.00
43480;BME280;29067;35.492;-97.520;2023-12-22T04:53:46;97800.88;;;8.49;100.00
43480;BME280;29067;35.492;-97.520;2023-12-22T04:56:15;97794.21;;;8.88;100.00
43480;BME280;29067;35.492;-97.520;2023-12-22T04:58:43;97796.96;;;8.42;100.00
43480;BME280;29067;35.492;-97.520;2023-12-22T05:01:11;97800.06;;;7.18;100.00
43480;BME280;29067;35.492;-97.520;2023-12-22T05:03:39;97797.41;;;8.18;100.00
43480;BME280;29067;35.492;-97.520;2023-12-22T05:06:07;97789.79;;;7.70;100.00
43480;BME280;29067;35.492;-97.520;2023-12-22T05:08:36;97782.15;;;8.25;100.00
43480;BME280;29067;35.492;-97.520;2023-12-22T05:11:03;97777.69;;;7.76;100.00
43480;BME280;29067;35.492;-97.520;2023-12-22T05:13:31;97770.14;;;8.17;100.00
43480;BME280;29067;35.492;-97.520;2023-12-22T05:15:59;97779.64;;;8.13;100.00
43480;BME280;29067;35.492;-97.520;2023-12-22T05:18:27;97775.97;;;7.64;100.00
43480;BME280;29067;35.492;-97.520;2023-12-22T05:20:55;97767.32;;;7.35;100.00
43480;BME280;29067;35.492;-97.520;2023-12-22T05:23:24;97768.19;;;8.02;100.00
43480;BME280;29067;35.492;-97.520;2023-12-22T05:25:52;97778.55;;;7.57;100.00
43480;BME280;29067;35.492;-97.520;2023-12-22T05:28:19;97770.37;;;7.91;100.00
43480;BME280;29067;35.492;-97.520;2023-12-22T05:30:47;97768.17;;;8.56;100.00
43480;BME280;29067;35.492;-97.520;2023-12-22T05:33:15;97768.19;;;8.87;100.00
43480;BME280;29067;35.492;-97.520;2023-12-22T05:35:43;97763.63;;;9.09;100.00
43480;BME280;29067;35.492;-97.520;2023-12-22T05:38:12;97763.92;;;8.95;100.00
43480;BME280;29067;35.492;-97.520;2023-12-22T05:40:39;97764.73;;;8.67;100.00
43480;BME280;29067;35.492;-97.520;2023-12-22T05:43:07;97755.97;;;8.73;100.00
43480;BME280;29067;35.492;-97.520;2023-12-22T05:45:35;97752.57;;;8.25;100.00
43480;BME280;29067;35.492;-97.520;2023-12-22T05:48:04;97756.77;;;9.16;100.00
43480;BME280;29067;35.492;-97.520;2023-12-22T05:50:33;97755.03;;;8.21;100.00
43480;BME280;29067;35.492;-97.520;2023-12-22T05:53:00;97755.79;;;7.87;100.00
43480;BME280;29067;35.492;-97.520;2023-12-22T05:55:28;97754.65;;;8.91;100.00
43480;BME280;29067;35.492;-97.520;2023-12-22T05:57:56;97757.65;;;9.05;100.00
43480;BME280;29067;35.492;-97.520;2023-12-22T06:00:25;97754.68;;;8.73;100.00
43480;BME280;29067;35.492;-97.520;2023-12-22T06:02:53;97754.05;;;8.20;100.00
43480;BME280;29067;35.492;-97.520;2023-12-22T06:05:20;97747.68;;;9.25;100.00
43480;BME280;29067;35.492;-97.520;2023-12-22T06:07:48;97740.57;;;10.02;100.00
43480;BME280;29067;35.492;-97.520;2023-12-22T06:10:16;97744.87;;;8.15;100.00
43480;BME280;29067;35.492;-97.520;2023-12-22T06:12:44;97736.26;;;9.50;100.00
43480;BME280;29067;35.492;-97.520;2023-12-22T06:15:12;97738.26;;;9.42;100.00
43480;BME280;29067;35.492;-97.520;2023-12-22T06:17:41;97749.19;;;8.97;100.00
43480;BME280;29067;35.492;-97.520;2023-12-22T06:20:09;97744.82;;;8.30;100.00
43480;BME280;29067;35.492;-97.520;2023-12-22T06:22:37;97743.56;;;8.61;100.00
43480;BME280;29067;35.492;-97.520;2023-12-22T06:25:06;97738.04;;;8.39;100.00
43480;BME280;29067;35.492;-97.520;2023-12-22T06:27:34;97741.50;;;8.27;100.00
43480;BME280;29067;35.492;-97.520;2023-12-22T06:30:02;97736.80;;;8.93;100.00
43480;BME280;29067;35.492;-97.520;2023-12-22T06:32:30;97739.36;;;8.24;100.00
43480;BME280;29067;35.492;-97.520;2023-12-22T06:34:58;97735.32;;;7.78;100.00
43480;BME280;29067;35.492;-97.520;2023-12-22T06:37:26;97734.10;;;8.27;100.00
43480;BME280;29067;35.492;-97.520;2023-12-22T06:39:54;97734.13;;;8.40;100.00
43480;BME280;29067;35.492;-97.520;2023-12-22T06:42:23;97733.62;;;8.64;100.00
43480;BME280;29067;35.492;-97.520;2023-12-22T06:44:51;97732.65;;;8.89;100.00
43480;BME280;29067;35.492;-97.520;2023-12-22T06:47:19;97729.28;;;8.06;100.00
43480;BME280;29067;35.492;-97.520;2023-12-22T06:49:47;97720.44;;;9.74;100.00
43480;BME280;29067;35.492;-97.520;2023-12-22T06:52:16;97720.21;;;9.02;100.00
43480;BME280;29067;35.492;-97.520;2023-12-22T06:54:44;97717.95;;;8.99;100.00
43480;BME280;29067;35.492;-97.520;2023-12-22T06:57:12;97723.96;;;8.33;100.00
43480;BME280;29067;35.492;-97.520;2023-12-22T06:59:40;97719.76;;;8.09;100.00
43480;BME280;29067;35.492;-97.520;2023-12-22T07:02:08;97714.41;;;10.04;100.00
43480;BME280;29067;35.492;-97.520;2023-12-22T07:05:41;97717.29;;;7.93;100.00
43480;BME280;29067;35.492;-97.520;2023-12-22T07:08:09;97715.37;;;7.98;100.00
43480;BME280;29067;35.492;-97.520;2023-12-22T07:10:37;97714.76;;;8.02;100.00
43480;BME280;29067;35.492;-97.520;2023-12-22T07:13:05;97710.64;;;7.24;100.00
43480;BME280;29067;35.492;-97.520;2023-12-22T07:15:33;97708.55;;;8.92;100.00
43480;BME280;29067;35.492;-97.520;2023-12-22T07:18:01;97699.82;;;9.55;100.00
43480;BME280;29067;35.492;-97.520;2023-12-22T07:20:29;97703.93;;;8.17;100.00
43480;BME280;29067;35.492;-97.520;2023-12-22T07:22:57;97702.19;;;9.23;100.00
43480;BME280;29067;35.492;-97.520;2023-12-22T07:25:25;97696.75;;;10.47;100.00
43480;BME280;29067;35.492;-97.520;2023-12-22T07:27:54;97695.70;;;9.51;100.00
43480;BME280;29067;35.492;-97.520;2023-12-22T07:30:21;97693.33;;;9.45;100.00
43480;BME280;29067;35.492;-97.520;2023-12-22T07:32:50;97695.13;;;9.57;100.00
43480;BME280;29067;35.492;-97.520;2023-12-22T07:35:18;97691.54;;;9.97;100.00
43480;BME280;29067;35.492;-97.520;2023-12-22T07:37:46;97691.37;;;9.16;100.00
43480;BME280;29067;35.492;-97.520;2023-12-22T07:40:14;97691.24;;;8.98;100.00
43480;BME280;29067;35.492;-97.520;2023-12-22T07:42:42;97697.87;;;8.74;100.00
43480;BME280;29067;35.492;-97.520;2023-12-22T07:45:10;97692.13;;;8.56;100.00
43480;BME280;29067;35.492;-97.520;2023-12-22T07:47:38;97692.04;;;8.23;100.00
43480;BME280;29067;35.492;-97.520;2023-12-22T07:50:07;97689.69;;;9.11;100.00
43480;BME280;29067;35.492;-97.520;2023-12-22T07:52:35;97691.35;;;8.43;100.00
43480;BME280;29067;35.492;-97.520;2023-12-22T07:55:05;97687.84;;;9.66;100.00
43480;BME280;29067;35.492;-97.520;2023-12-22T07:57:32;97681.05;;;9.45;100.00
43480;BME280;29067;35.492;-97.520;2023-12-22T08:00:01;97683.88;;;9.90;100.00
43480;BME280;29067;35.492;-97.520;2023-12-22T08:02:28;97684.40;;;10.67;99.97
43480;BME280;29067;35.492;-97.520;2023-12-22T08:04:57;97688.03;;;9.51;100.00
43480;BME280;29067;35.492;-97.520;2023-12-22T08:07:25;97691.74;;;8.16;100.00
43480;BME280;29067;35.492;-97.520;2023-12-22T08:09:53;97694.26;;;8.72;100.00
43480;BME280;29067;35.492;-97.520;2023-12-22T08:12:22;97696.02;;;8.33;100.00
43480;BME280;29067;35.492;-97.520;2023-12-22T08:14:50;97697.37;;;9.53;100.00
43480;BME280;29067;35.492;-97.520;2023-12-22T08:17:18;97706.59;;;8.61;100.00
43480;BME280;29067;35.492;-97.520;2023-12-22T08:19:46;97702.14;;;8.27;100.00
43480;BME280;29067;35.492;-97.520;2023-12-22T08:22:14;97699.67;;;9.08;100.00
43480;BME280;29067;35.492;-97.520;2023-12-22T08:24:42;97696.96;;;8.60;100.00
43480;BME280;29067;35.492;-97.520;2023-12-22T08:27:10;97697.49;;;8.79;100.00
43480;BME280;29067;35.492;-97.520;2023-12-22T08:29:38;97697.26;;;9.08;100.00
43480;BME280;29067;35.492;-97.520;2023-12-22T08:32:06;97697.31;;;8.99;100.00
43480;BME280;29067;35.492;-97.520;2023-12-22T08:34:33;97698.00;;;9.37;100.00
43480;BME280;29067;35.492;-97.520;2023-12-22T08:53:14;97698.77;;;9.97;100.00
43480;BME280;29067;35.492;-97.520;2023-12-22T08:55:41;97696.15;;;7.76;100.00
43480;BME280;29067;35.492;-97.520;2023-12-22T08:58:09;97698.38;;;8.68;100.00
43480;BME280;29067;35.492;-97.520;2023-12-22T09:00:37;97699.76;;;8.30;100.00
43480;BME280;29067;35.492;-97.520;2023-12-22T09:03:05;97699.67;;;8.04;100.00
43480;BME280;29067;35.492;-97.520;2023-12-22T09:05:33;97698.75;;;8.46;100.00
43480;BME280;29067;35.492;-97.520;2023-12-22T09:08:01;97689.14;;;9.31;100.00
43480;BME280;29067;35.492;-97.520;2023-12-22T09:10:28;97686.52;;;8.16;100.00
43480;BME280;29067;35.492;-97.520;2023-12-22T09:12:56;97682.94;;;9.09;100.00
43480;BME280;29067;35.492;-97.520;2023-12-22T09:15:24;97680.22;;;8.32;100.00
43480;BME280;29067;35.492;-97.520;2023-12-22T09:17:51;97682.39;;;8.56;100.00
43480;BME280;29067;35.492;-97.520;2023-12-22T09:20:19;97688.46;;;7.89;100.00
43480;BME280;29067;35.492;-97.520;2023-12-22T09:22:48;97680.98;;;9.12;100.00
43480;BME280;29067;35.492;-97.520;2023-12-22T09:25:15;97681.03;;;8.85;100.00
43480;BME280;29067;35.492;-97.520;2023-12-22T09:27:43;97678.93;;;9.27;100.00
43480;BME280;29067;35.492;-97.520;2023-12-22T09:30:11;97682.02;;;9.69;100.00
43480;BME280;29067;35.492;-97.520;2023-12-22T09:32:39;97693.91;;;8.32;100.00
43480;BME280;29067;35.492;-97.520;2023-12-22T09:35:07;97686.33;;;8.17;100.00
43480;BME280;29067;35.492;-97.520;2023-12-22T09:37:35;97685.06;;;8.03;100.00
43480;BME280;29067;35.492;-97.520;2023-12-22T09:40:04;97686.17;;;8.41;100.00
43480;BME280;29067;35.492;-97.520;2023-12-22T09:42:31;97685.57;;;8.06;100.00
43480;BME280;29067;35.492;-97.520;2023-12-22T09:45:02;97688.79;;;7.66;100.00
43480;BME280;29067;35.492;-97.520;2023-12-22T09:47:33;97682.05;;;8.22;100.00
43480;BME280;29067;35.492;-97.520;2023-12-22T09:50:03;97679.55;;;8.45;100.00
43480;BME280;29067;35.492;-97.520;2023-12-22T09:52:32;97672.33;;;8.22;100.00
43480;BME280;29067;35.492;-97.520;2023-12-22T09:55:04;97667.32;;;8.98;100.00
43480;BME280;29067;35.492;-97.520;2023-12-22T09:57:32;97665.07;;;8.65;100.00
43480;BME280;29067;35.492;-97.520;2023-12-22T10:00:01;97652.46;;;9.89;100.00
43480;BME280;29067;35.492;-97.520;2023-12-22T10:02:31;97656.41;;;9.57;100.00
43480;BME280;29067;35.492;-97.520;2023-12-22T10:05:00;97656.81;;;9.72;100.00
43480;BME280;29067;35.492;-97.520;2023-12-22T10:07:29;97657.00;;;9.91;99.10
43480;BME280;29067;35.492;-97.520;2023-12-22T10:09:58;97651.91;;;8.84;100.00
43480;BME280;29067;35.492;-97.520;2023-12-22T10:12:27;97654.06;;;9.78;100.00
43480;BME280;29067;35.492;-97.520;2023-12-22T10:14:57;97657.15;;;9.05;100.00
43480;BME280;29067;35.492;-97.520;2023-12-22T10:17:27;97663.27;;;8.32;100.00
43480;BME280;29067;35.492;-97.520;2023-12-22T10:19:57;97661.44;;;8.66;100.00
43480;BME280;29067;35.492;-97.520;2023-12-22T10:22:25;97657.23;;;8.67;100.00
43480;BME280;29067;35.492;-97.520;2023-12-22T10:24:52;97654.65;;;9.13;100.00
43480;BME280;29067;35.492;-97.520;2023-12-22T10:27:20;97653.20;;;9.17;100.00
43480;BME280;29067;35.492;-97.520;2023-12-22T10:29:49;97654.42;;;9.51;100.00
43480;BME280;29067;35.492;-97.520;2023-12-22T10:32:17;97663.33;;;8.04;100.00
43480;BME280;29067;35.492;-97.520;2023-12-22T10:34:44;97661.02;;;8.72;100.00
43480;BME280;29067;35.492;-97.520;2023-12-22T10:37:12;97656.00;;;8.86;100.00
43480;BME280;29067;35.492;-97.520;2023-12-22T10:39:40;97655.97;;;8.47;100.00
43480;BME280;29067;35.492;-97.520;2023-12-22T10:42:08;97651.51;;;9.65;97.70
43480;BME280;29067;35.492;-97.520;2023-12-22T10:44:40;97651.38;;;10.79;92.52
43480;BME280;29067;35.492;-97.520;2023-12-22T10:47:09;97649.81;;;9.90;94.44
43480;BME280;29067;35.492;-97.520;2023-12-22T10:49:37;97651.13;;;9.58;92.90
43480;BME280;29067;35.492;-97.520;2023-12-22T10:52:05;97649.83;;;9.98;93.73
43480;BME280;29067;35.492;-97.520;2023-12-22T10:54:33;97649.99;;;9.28;100.00
43480;BME280;29067;35.492;-97.520;2023-12-22T10:57:04;97658.70;;;8.30;100.00
43480;BME280;29067;35.492;-97.520;2023-12-22T10:59:33;97657.90;;;8.51;100.00
43480;BME280;29067;35.492;-97.520;2023-12-22T11:02:02;97654.04;;;9.37;100.00
43480;BME280;29067;35.492;-97.520;2023-12-22T11:04:32;97654.65;;;8.71;100.00
43480;BME280;29067;35.492;-97.520;2023-12-22T11:07:04;97655.55;;;8.97;100.00
43480;BME280;29067;35.492;-97.520;2023-12-22T11:09:35;97649.69;;;9.85;97.79
43480;BME280;29067;35.492;-97.520;2023-12-22T11:12:05;97655.60;;;9.55;99.77
43480;BME280;29067;35.492;-97.520;2023-12-22T11:14:35;97656.98;;;9.19;98.97
43480;BME280;29067;35.492;-97.520;2023-12-22T11:17:04;97655.01;;;9.33;98.72
43480;BME280;29067;35.492;-97.520;2023-12-22T11:19:34;97659.06;;;10.64;91.90
43480;BME280;29067;35.492;-97.520;2023-12-22T11:22:04;97660.68;;;8.91;100.00
43480;BME280;29067;35.492;-97.520;2023-12-22T11:24:34;97659.21;;;8.83;98.82
43480;BME280;29067;35.492;-97.520;2023-12-22T11:27:03;97662.64;;;8.65;100.00
43480;BME280;29067;35.492;-97.520;2023-12-22T11:29:32;97660.26;;;9.06;100.00
43480;BME280;29067;35.492;-97.520;2023-12-22T11:32:01;97666.34;;;8.50;100.00
43480;BME280;29067;35.492;-97.520;2023-12-22T11:34:31;97663.03;;;9.80;96.52
43480;BME280;29067;35.492;-97.520;2023-12-22T11:37:00;97666.19;;;8.24;100.00
43480;BME280;29067;35.492;-97.520;2023-12-22T11:39:31;97662.73;;;10.73;94.62
43480;BME280;29067;35.492;-97.520;2023-12-22T11:42:00;97668.08;;;9.04;99.25
43480;BME280;29067;35.492;-97.520;2023-12-22T11:44:29;97668.09;;;10.09;93.85
43480;BME280;29067;35.492;-97.520;2023-12-22T11:47:05;97672.27;;;9.70;92.97
43480;BME280;29067;35.492;-97.520;2023-12-22T11:49:33;97674.55;;;10.89;92.32
43480;BME280;29067;35.492;-97.520;2023-12-22T11:52:10;97673.38;;;10.41;88.81
43480;BME280;29067;35.492;-97.520;2023-12-22T11:54:47;97675.96;;;10.29;88.44
43480;BME280;29067;35.492;-97.520;2023-12-22T11:57:32;97673.99;;;9.71;92.07
43480;BME280;29067;35.492;-97.520;2023-12-22T12:00:05;97672.70;;;10.05;92.63
43480;BME280;29067;35.492;-97.520;2023-12-22T12:03:06;97675.80;;;9.71;89.68
43480;BME280;29067;35.492;-97.520;2023-12-22T12:05:34;97674.40;;;9.70;89.32
43480;BME280;29067;35.492;-97.520;2023-12-22T12:08:07;97671.74;;;10.34;85.68
43480;BME280;29067;35.492;-97.520;2023-12-22T12:10:52;97670.87;;;9.75;90.69
43480;BME280;29067;35.492;-97.520;2023-12-22T12:13:23;97677.43;;;8.29;100.00
43480;BME280;29067;35.492;-97.520;2023-12-22T12:15:52;97674.66;;;10.21;94.16
43480;BME280;29067;35.492;-97.520;2023-12-22T12:18:22;97679.92;;;8.55;100.00
43480;BME280;29067;35.492;-97.520;2023-12-22T12:20:51;97676.88;;;9.66;95.31
43480;BME280;29067;35.492;-97.520;2023-12-22T12:23:19;97675.55;;;10.13;93.33
43480;BME280;29067;35.492;-97.520;2023-12-22T12:25:48;97676.71;;;8.90;97.10
43480;BME280;29067;35.492;-97.520;2023-12-22T12:28:16;97676.01;;;10.15;94.58
43480;BME280;29067;35.492;-97.520;2023-12-22T12:30:44;97676.65;;;8.99;96.18
43480;BME280;29067;35.492;-97.520;2023-12-22T12:33:13;97678.36;;;8.95;98.67
43480;BME280;29067;35.492;-97.520;2023-12-22T12:35:42;97681.63;;;9.94;93.04
43480;BME280;29067;35.492;-97.520;2023-12-22T12:38:10;97685.00;;;10.23;94.34
43480;BME280;29067;35.492;-97.520;2023-12-22T12:40:39;97687.27;;;10.88;91.28
43480;BME280;29067;35.492;-97.520;2023-12-22T12:43:07;97689.81;;;10.35;88.48
43480;BME280;29067;35.492;-97.520;2023-12-22T12:45:36;97691.46;;;9.72;95.38
43480;BME280;29067;35.492;-97.520;2023-12-22T12:48:04;97696.78;;;9.81;95.57
43480;BME280;29067;35.492;-97.520;2023-12-22T12:50:32;97703.96;;;10.23;93.23
43480;BME280;29067;35.492;-97.520;2023-12-22T12:53:01;97705.82;;;9.27;96.57
43480;BME280;29067;35.492;-97.520;2023-12-22T12:55:29;97704.18;;;9.35;93.61
43480;BME280;29067;35.492;-97.520;2023-12-22T12:58:00;97710.81;;;8.22;100.00
43480;BME280;29067;35.492;-97.520;2023-12-22T13:00:28;97709.60;;;9.30;100.00
43480;BME280;29067;35.492;-97.520;2023-12-22T13:03:00;97708.60;;;10.51;94.57
43480;BME280;29067;35.492;-97.520;2023-12-22T13:05:29;97714.55;;;8.78;100.00